Time;durP1;ratioP1;P1;durP2;ratioP2;P2;SDS_P1;SDS_P2;PMS_P1;PMS_P2;Temp;Humidity;BMP_temperature;BMP_pressure;BME280_temperature;BME280_humidity;BME280_pressure;Samples;Min_cycle;Max_cycle;Signal;HPM_P1;HPM_P2
2021/10/28 00:14:21;;;;;;;7.00;5.12;;;;;;;7.14;60.34;101018.56;4431004;32;33829;-83
2021/10/28 00:16:50;;;;;;;;;;;;;;;7.24;60.71;101022.34;4433615;32;34484;-85
2021/10/28 00:19:18;;;;;;;10.45;7.28;;;;;;;7.06;61.22;101023.47;4432314;32;35001;-85
2021/10/28 00:21:45;;;;;;;;;;;;;;;6.99;61.56;101024.81;4430657;32;32836;-85
2021/10/28 00:24:14;;;;;;;9.63;6.82;;;;;;;7.18;61.20;101028.88;4432036;32;34012;-84
2021/10/28 00:26:45;;;;;;;31.77;6.97;;;;;;;7.28;60.96;101023.87;4433896;32;34151;-83
2021/10/28 00:29:17;;;;;;;6.30;5.75;;;;;;;7.41;60.30;101030.97;4427997;32;33589;-83
2021/10/28 00:31:46;;;;;;;15.40;7.97;;;;;;;7.35;60.41;101018.12;4436866;32;32959;-83
2021/10/28 00:34:15;;;;;;;11.85;6.47;;;;;;;7.36;59.93;101018.97;4432612;32;34474;-83
2021/10/28 00:36:45;;;;;;;6.55;5.95;;;;;;;7.29;60.07;101012.34;4432014;32;35338;-84
2021/10/28 00:39:13;;;;;;;12.77;7.18;;;;;;;7.21;60.08;101023.41;4433683;32;34460;-85
2021/10/28 00:41:42;;;;;;;5.53;5.00;;;;;;;7.30;59.67;101029.94;4432997;32;33843;-83
2021/10/28 00:46:56;;;;;;;10.15;7.30;;;;;;;7.40;58.98;101026.63;4429425;32;35267;-83
2021/10/28 00:49:24;;;;;;;7.30;5.65;;;;;;;7.48;58.57;101023.50;4430685;32;34863;-83
2021/10/28 00:51:52;;;;;;;7.90;6.80;;;;;;;7.47;58.63;101024.47;4432813;32;33163;-84
2021/10/28 00:54:22;;;;;;;11.77;7.28;;;;;;;7.34;59.07;101023.50;4429024;32;33118;-84
2021/10/28 00:56:50;;;;;;;7.43;5.97;;;;;;;7.18;59.68;101025.41;4434731;32;35794;-83
2021/10/28 00:59:17;;;;;;;8.13;6.90;;;;;;;7.05;60.22;101027.94;4429018;32;34467;-83
2021/10/28 01:01:45;;;;;;;7.95;5.72;;;;;;;7.03;60.45;101021.88;4431073;32;34009;-83
2021/10/28 01:04:13;;;;;;;10.68;7.40;;;;;;;7.13;60.16;101030.09;4419803;32;34348;-84
2021/10/28 01:06:40;;;;;;;10.00;7.10;;;;;;;7.18;60.13;101031.53;4429731;32;35045;-83
2021/10/28 01:09:08;;;;;;;11.25;6.57;;;;;;;7.11;60.22;101029.34;4431951;32;34233;-84
2021/10/28 01:11:36;;;;;;;7.60;6.72;;;;;;;7.03;60.28;101024.53;4417292;32;31334;-84
2021/10/28 01:14:04;;;;;;;8.63;7.22;;;;;;;6.99;60.52;101025.62;4419492;32;32124;-83
2021/10/28 01:16:32;;;;;;;8.82;5.87;;;;;;;7.24;59.73;101009.13;4430726;32;34917;-84
2021/10/28 01:19:00;;;;;;;6.50;5.90;;;;;;;7.14;59.61;101011.50;4429920;32;34766;-83
2021/10/28 01:21:28;;;;;;;11.95;7.22;;;;;;;7.24;59.02;101010.00;4428777;32;33372;-83
2021/10/28 01:23:56;;;;;;;5.40;5.00;;;;;;;7.16;58.59;101012.25;4431791;32;33338;-84
2021/10/28 01:26:24;;;;;;;8.43;7.57;;;;;;;7.17;58.27;101011.28;4433381;32;35741;-84
2021/10/28 01:28:56;;;;;;;10.23;7.90;;;;;;;7.20;58.00;101004.97;4434222;32;34362;-83
2021/10/28 01:31:26;;;;;;;6.35;5.78;;;;;;;7.14;58.15;101014.16;4434529;32;33923;-85
2021/10/28 01:33:57;;;;;;;7.50;5.82;;;;;;;7.16;57.70;101020.19;4430406;32;33695;-84
2021/10/28 01:36:26;;;;;;;7.12;6.43;;;;;;;7.02;57.64;101020.19;4432088;32;35565;-83
2021/10/28 01:38:54;;;;;;;7.68;6.43;;;;;;;6.81;58.20;101026.72;4432549;32;34046;-85
2021/10/28 01:41:24;;;;;;;7.50;5.95;;;;;;;6.65;59.32;101018.03;4427363;32;33449;-84
2021/10/28 01:43:54;;;;;;;8.35;5.65;;;;;;;6.88;59.02;101021.97;4427881;32;33533;-84
2021/10/28 01:46:22;;;;;;;6.45;5.68;;;;;;;6.82;59.42;101024.97;4430947;32;34945;-84
2021/10/28 01:48:50;;;;;;;9.02;7.57;;;;;;;6.55;60.23;101027.44;4428382;32;33239;-83
2021/10/28 01:51:23;;;;;;;13.07;5.65;;;;;;;6.65;59.99;101025.09;4430440;32;34087;-83
2021/10/28 01:53:51;;;;;;;9.32;8.07;;;;;;;6.55;60.72;101021.28;4426330;32;34721;-84
2021/10/28 01:56:19;;;;;;;7.15;6.45;;;;;;;6.59;60.49;101021.03;4432673;32;35775;-83
2021/10/28 01:58:50;;;;;;;10.10;6.60;;;;;;;6.77;59.91;101019.06;4427813;32;34826;-83
2021/10/28 02:01:18;;;;;;;7.90;5.28;;;;;;;6.83;59.60;101019.59;4430194;32;33708;-84
2021/10/28 02:03:46;;;;;;;7.60;6.20;;;;;;;6.78;59.43;101026.94;4417499;32;34041;-84
2021/10/28 02:06:14;;;;;;;6.05;5.55;;;;;;;6.74;59.45;101022.78;4430289;32;35436;-84
2021/10/28 02:08:41;;;;;;;7.82;5.97;;;;;;;6.78;59.04;101018.12;4430165;32;35455;-84
2021/10/28 02:11:09;;;;;;;7.65;5.45;;;;;;;6.55;59.60;101013.34;4418492;32;31792;-84
2021/10/28 02:13:37;;;;;;;6.62;5.10;;;;;;;6.34;60.24;101014.62;4426190;32;35067;-84
2021/10/28 02:16:04;;;;;;;10.13;5.35;;;;;;;6.44;60.35;101011.31;4429598;32;33538;-83
2021/10/28 02:18:32;;;;;;;;;;;;;;;6.67;59.62;101007.34;4431004;32;34424;-84
2021/10/28 02:21:00;;;;;;;8.48;5.53;;;;;;;6.60;59.78;101003.37;4422590;32;33940;-84
2021/10/28 02:23:30;;;;;;;7.37;6.20;;;;;;;6.45;60.49;101007.75;4442043;32;33943;-83
2021/10/28 02:25:58;;;;;;;9.23;5.80;;;;;;;6.53;60.39;101002.84;4430932;32;34777;-83
2021/10/28 02:28:26;;;;;;;6.12;5.62;;;;;;;6.53;60.24;101000.22;4435869;32;34087;-83
2021/10/28 02:30:53;;;;;;;8.05;7.18;;;;;;;6.51;60.53;101002.09;4434728;32;34195;-84
2021/10/28 02:33:21;;;;;;;14.05;5.72;;;;;;;6.60;60.08;100992.81;4426719;32;31992;-83
2021/10/28 02:35:49;;;;;;;6.12;5.53;;;;;;;6.60;60.21;100988.34;4430818;32;34922;-84
2021/10/28 02:38:17;;;;;;;8.18;5.43;;;;;;;6.55;60.57;100989.56;4417008;32;32451;-84
2021/10/28 02:40:45;;;;;;;12.13;6.70;;;;;;;6.36;60.97;100988.94;4434948;32;33260;-84
2021/10/28 02:43:13;;;;;;;5.20;4.72;;;;;;;6.53;60.27;100987.00;4431720;32;33953;-83
2021/10/28 02:45:41;;;;;;;8.93;6.65;;;;;;;6.43;60.04;100991.12;4430473;32;35501;-83
2021/10/28 02:48:09;;;;;;;8.95;6.40;;;;;;;6.39;60.06;100996.69;4429917;32;32253;-83
2021/10/28 02:50:36;;;;;;;10.85;6.50;;;;;;;6.36;59.94;100996.87;4434966;32;31795;-82
2021/10/28 02:53:03;;;;;;;12.70;7.03;;;;;;;6.29;59.94;100996.37;4434743;32;33862;-84
2021/10/28 02:55:32;;;;;;;8.75;5.87;;;;;;;6.26;59.80;100991.25;4419566;32;35033;-83
2021/10/28 02:57:59;;;;;;;7.47;6.57;;;;;;;6.06;60.65;101002.09;4436142;32;34648;-84
2021/10/28 03:00:27;;;;;;;20.20;8.05;;;;;;;5.94;61.67;100997.53;4432852;32;31387;-84
2021/10/28 03:02:55;;;;;;;7.10;6.25;;;;;;;5.89;61.82;100998.72;4436057;32;33835;-84
2021/10/28 03:05:22;;;;;;;8.77;5.85;;;;;;;5.99;61.35;101000.78;4429499;32;34838;-84
2021/10/28 03:07:51;;;;;;;7.50;5.72;;;;;;;5.94;61.79;100997.53;4431426;32;34878;-84
2021/10/28 03:10:19;;;;;;;9.00;7.10;;;;;;;5.98;61.73;101000.84;4430531;32;33441;-83
2021/10/28 03:12:50;;;;;;;8.35;5.65;;;;;;;5.93;61.82;100993.19;4431030;32;33755;-83
2021/10/28 03:15:18;;;;;;;6.82;6.07;;;;;;;5.87;62.17;100997.97;4433748;32;35162;-83
2021/10/28 03:26:05;;;;;;;11.18;7.25;;;;;;;5.94;61.51;101000.16;4428869;32;34532;-85
2021/10/28 03:28:33;;;;;;;7.40;6.53;;;;;;;5.95;62.26;100995.75;4435993;32;34162;-84
2021/10/28 03:31:01;;;;;;;7.55;6.47;;;;;;;5.97;61.92;101005.25;4443285;32;33703;-84
2021/10/28 03:33:28;;;;;;;8.75;6.82;;;;;;;5.87;62.40;100990.88;4432165;32;33751;-84
2021/10/28 03:35:56;;;;;;;7.87;7.03;;;;;;;6.23;61.27;100986.16;4433153;32;35163;-83
2021/10/28 03:38:27;;;;;;;7.95;6.90;;;;;;;5.91;62.01;100996.84;4431679;32;34989;-84
2021/10/28 04:08:13;;;;;;;7.75;6.18;;;;;;;6.17;60.02;101020.84;4430350;32;33539;-84
2021/10/28 04:16:48;;;;;;;8.32;6.65;;;;;;;5.59;62.30;101022.34;4432207;32;35272;-84
2021/10/28 04:29:33;;;;;;;13.95;6.78;;;;;;;5.97;61.08;101018.47;4428730;32;34915;-83
2021/10/28 04:32:02;;;;;;;8.38;7.40;;;;;;;6.03;60.59;101023.41;4432304;32;34277;-85
2021/10/28 04:34:30;;;;;;;13.43;6.43;;;;;;;5.92;60.90;101019.66;4428867;32;34011;-83
2021/10/28 04:36:58;;;;;;;12.50;6.00;;;;;;;5.83;61.10;101018.41;4430939;32;32628;-84
2021/10/28 04:39:26;;;;;;;8.55;6.05;;;;;;;5.77;61.33;101023.16;4428179;32;34145;-83
2021/10/28 04:41:53;;;;;;;6.45;5.78;;;;;;;5.80;61.15;101029.13;4434449;32;34426;-83
2021/10/28 04:44:21;;;;;;;6.75;5.97;;;;;;;5.87;60.87;101022.56;4416917;32;34015;-84
2021/10/28 04:46:49;;;;;;;;;;;;;;;5.91;60.62;101024.13;4431345;32;33506;-84
2021/10/28 04:49:16;;;;;;;6.37;4.97;;;;;;;6.04;59.87;101021.62;4420987;32;36243;-85
2021/10/28 04:51:44;;;;;;;6.47;5.40;;;;;;;6.06;59.44;101020.59;4421057;32;34350;-83
2021/10/28 04:54:12;;;;;;;8.35;5.68;;;;;;;5.88;59.94;101015.50;4430010;32;32080;-83
2021/10/28 04:56:39;;;;;;;11.60;6.57;;;;;;;5.69;60.94;101020.91;4441728;32;33388;-83
2021/10/28 04:59:07;;;;;;;8.77;6.90;;;;;;;5.75;61.21;101015.28;4431416;32;35291;-84
2021/10/28 05:01:35;;;;;;;10.98;7.10;;;;;;;5.88;60.83;101023.44;4431563;32;33107;-84
2021/10/28 05:04:03;;;;;;;8.02;6.07;;;;;;;5.94;60.37;101023.94;4427929;32;33287;-84
2021/10/28 05:06:31;;;;;;;16.75;5.70;;;;;;;5.84;60.63;101021.88;4431930;32;33373;-84
2021/10/28 05:08:58;;;;;;;13.02;7.93;;;;;;;5.93;60.21;101024.00;4429557;32;33535;-84
2021/10/28 05:11:28;;;;;;;5.80;5.30;;;;;;;5.93;60.16;101024.88;4430292;32;34481;-83
2021/10/28 05:13:56;;;;;;;8.30;5.72;;;;;;;6.00;59.78;101028.03;4438156;32;32915;-83
2021/10/28 05:16:26;;;;;;;12.88;6.70;;;;;;;5.85;60.27;101023.56;4432120;32;33961;-84
2021/10/28 05:18:54;;;;;;;10.80;6.07;;;;;;;5.78;60.52;101023.03;4431899;32;34611;-83
2021/10/28 05:21:21;;;;;;;11.10;7.05;;;;;;;5.92;60.15;101027.59;4427145;32;34179;-85
2021/10/28 05:23:51;;;;;;;8.13;6.80;;;;;;;5.91;60.34;101024.13;4428579;32;35500;-84
2021/10/28 05:26:19;;;;;;;6.80;6.18;;;;;;;5.81;60.82;101024.69;4431346;32;32841;-84
2021/10/28 05:28:47;;;;;;;13.95;8.23;;;;;;;5.87;60.66;101022.56;4430470;32;36204;-83
2021/10/28 05:31:15;;;;;;;9.27;5.80;;;;;;;5.77;60.91;101029.25;4421498;32;34244;-83
2021/10/28 05:33:43;;;;;;;9.95;6.95;;;;;;;5.92;60.43;101028.47;4435802;32;33332;-82
2021/10/28 05:36:11;;;;;;;12.70;7.45;;;;;;;5.91;59.96;101034.69;4433267;32;34639;-84
2021/10/28 05:38:38;;;;;;;;;;;;;;;5.81;60.30;101025.56;4432746;32;34746;-84
2021/10/28 05:41:06;;;;;;;11.20;6.78;;;;;;;5.82;59.93;101027.25;4431513;32;34310;-84
2021/10/28 05:43:34;;;;;;;10.02;6.90;;;;;;;5.43;61.19;101040.87;4438954;32;33131;-83
2021/10/28 05:46:02;;;;;;;11.25;7.43;;;;;;;5.66;60.82;101049.25;4425516;32;33842;-84
2021/10/28 05:48:30;;;;;;;;;;;;;;;5.81;60.25;101046.69;4426676;32;35508;-83
2021/10/28 05:50:59;;;;;;;14.05;6.68;;;;;;;5.77;60.65;101045.09;4418098;32;32619;-84
2021/10/28 05:53:28;;;;;;;7.03;6.25;;;;;;;5.76;60.90;101061.03;4436353;32;33379;-84
2021/10/28 05:55:56;;;;;;;9.48;8.50;;;;;;;5.81;60.81;101059.03;4435726;32;33425;-84
2021/10/28 05:58:23;;;;;;;16.12;8.50;;;;;;;5.53;61.80;101057.00;4445666;32;35135;-84
2021/10/28 06:00:51;;;;;;;;;;;;;;;5.37;62.77;101057.87;4433815;32;33691;-84
2021/10/28 06:03:19;;;;;;;;;;;;;;;5.62;62.50;101061.78;4442481;32;33621;-84
2021/10/28 06:05:47;;;;;;;11.30;6.82;;;;;;;5.92;61.65;101060.16;4432567;32;33145;-84
2021/10/28 06:08:14;;;;;;;10.45;8.38;;;;;;;5.92;61.74;101065.44;4440566;32;35952;-84
2021/10/28 06:10:42;;;;;;;12.13;8.10;;;;;;;5.94;61.92;101068.84;4435507;32;34554;-83
2021/10/28 06:13:10;;;;;;;10.68;8.02;;;;;;;5.96;61.97;101072.25;4435680;32;33030;-83
2021/10/28 06:15:38;;;;;;;9.77;7.43;;;;;;;6.16;61.48;101065.84;4429929;32;32327;-82
2021/10/28 06:20:40;;;;;;;12.50;8.93;;;;;;;6.30;61.49;101072.06;4441286;32;35120;-83
2021/10/28 06:23:08;;;;;;;10.50;9.32;;;;;;;6.40;61.18;101075.88;4440416;32;31934;-83
2021/10/28 06:25:36;;;;;;;13.88;7.40;;;;;;;6.40;61.48;101073.25;4428738;32;33797;-83
2021/10/28 06:28:04;;;;;;;10.82;7.85;;;;;;;6.56;61.26;101071.44;4432901;32;34435;-82
2021/10/28 06:30:33;;;;;;;9.40;8.25;;;;;;;6.48;61.68;101073.66;4443847;32;33274;-82
2021/10/28 06:33:04;;;;;;;11.10;8.40;;;;;;;6.64;61.54;101074.47;4433846;32;33059;-83
2021/10/28 06:35:36;;;;;;;13.93;11.82;;;;;;;6.72;61.26;101082.81;4429899;32;33682;-83
2021/10/28 06:38:04;;;;;;;17.77;11.23;;;;;;;6.86;61.11;101084.66;4434336;32;34785;-83
2021/10/28 06:40:32;;;;;;;10.75;8.70;;;;;;;6.90;61.15;101080.91;4440986;32;34948;-83
2021/10/28 06:43:00;;;;;;;10.65;7.10;;;;;;;6.78;61.64;101081.59;4435238;32;32746;-83
2021/10/28 06:45:28;;;;;;;12.25;9.02;;;;;;;6.67;62.60;101084.87;4435110;32;34573;-84
2021/10/28 06:47:57;;;;;;;12.65;8.50;;;;;;;6.62;63.23;101083.44;4431349;32;34840;-82
2021/10/28 06:50:29;;;;;;;12.60;8.38;;;;;;;6.82;62.83;101086.62;4436261;32;34513;-83
2021/10/28 06:53:09;;;;;;;10.25;6.70;;;;;;;7.11;62.11;101088.44;4438943;32;33004;-83
2021/10/28 07:03:30;;;;;;;;;;;;;;;7.41;61.74;101085.72;4437215;32;33225;-83
2021/10/28 07:06:10;;;;;;;11.35;8.23;;;;;;;7.60;61.59;101084.50;4432620;32;32329;-83
2021/10/28 07:08:42;;;;;;;8.77;6.65;;;;;;;7.73;61.16;101077.50;4435617;32;34564;-83
2021/10/28 07:11:18;;;;;;;13.20;6.97;;;;;;;7.88;60.91;101094.22;4437451;32;34175;-83
2021/10/28 07:13:49;;;;;;;9.13;6.40;;;;;;;7.94;61.03;101091.19;4436885;32;33396;-83
2021/10/28 07:18:52;;;;;;;9.82;8.05;;;;;;;8.07;60.76;101086.81;4435090;32;35074;-83
2021/10/28 07:34:19;;;;;;;8.27;7.32;;;;;;;9.13;58.86;101079.72;4436440;32;33672;-83
2021/10/28 08:16:00;;;;;;;10.75;9.85;;;;;;;11.39;54.80;101065.59;4433239;32;33558;-84
2021/10/28 08:18:48;;;;;;;19.40;10.90;;;;;;;11.75;54.55;101060.06;4436261;32;32964;-84
2021/10/28 08:31:53;;;;;;;21.33;14.57;;;;;;;12.12;52.52;101058.84;4436239;32;35368;-84
2021/10/28 08:34:28;;;;;;;22.55;15.20;;;;;;;12.52;51.24;101052.81;4419243;32;33936;-86
2021/10/28 08:37:06;;;;;;;16.87;15.13;;;;;;;12.38;51.03;101047.72;4443274;32;33569;-85
2021/10/28 08:39:34;;;;;;;16.55;13.07;;;;;;;12.45;51.59;101054.28;4439065;32;33473;-85
2021/10/28 08:42:08;;;;;;;21.48;15.43;;;;;;;12.71;50.37;101054.78;4431588;32;34078;-89
2021/10/28 08:44:40;;;;;;;23.12;17.73;;;;;;;13.00;49.70;101053.22;4428812;32;34466;-84
2021/10/28 08:47:09;;;;;;;12.90;11.70;;;;;;;12.70;50.21;101061.09;4433156;32;34350;-85
2021/10/28 08:49:43;;;;;;;16.05;12.75;;;;;;;13.02;49.30;101051.31;4421287;32;33656;-87
2021/10/28 09:00:25;;;;;;;15.18;11.77;;;;;;;13.53;47.70;101057.53;4439134;32;33206;-85
2021/10/28 09:28:07;;;;;;;14.60;13.20;;;;;;;14.77;46.27;101063.13;4430009;32;34373;-90
2021/10/28 09:33:26;;;;;;;15.48;13.07;;;;;;;15.31;43.85;101047.31;4428743;32;33150;-88
2021/10/28 09:36:18;;;;;;;19.85;13.70;;;;;;;15.30;43.67;101056.38;4437270;32;34271;-89
2021/10/28 09:50:13;;;;;;;26.33;13.10;;;;;;;15.67;42.84;101059.12;4429112;32;33795;-88
2021/10/28 09:52:54;;;;;;;19.20;14.27;;;;;;;15.57;42.83;101059.12;4434733;32;34278;-85
2021/10/28 09:58:27;;;;;;;12.02;10.45;;;;;;;15.72;41.30;101048.78;4436246;32;33822;-86
2021/10/28 10:00:56;;;;;;;32.28;11.90;;;;;;;15.96;42.26;101062.53;4434359;32;34296;-85
2021/10/28 10:03:34;;;;;;;14.60;11.15;;;;;;;16.17;39.86;101044.34;4435154;32;34091;-88
2021/10/28 10:06:03;;;;;;;13.18;11.65;;;;;;;16.08;40.31;101043.41;4432254;32;34110;-89
2021/10/28 10:08:32;;;;;;;11.80;10.52;;;;;;;15.84;40.27;101044.91;4427932;32;33738;-89
2021/10/28 10:11:03;;;;;;;11.00;9.88;;;;;;;15.97;39.73;101045.44;4428936;32;35045;-88
2021/10/28 10:13:31;;;;;;;9.60;8.77;;;;;;;16.08;39.54;101032.66;4431958;32;34705;-88
2021/10/28 10:16:01;;;;;;;10.88;8.85;;;;;;;16.43;38.99;101035.44;4432653;32;32884;-88
2021/10/28 10:18:32;;;;;;;12.32;9.90;;;;;;;16.54;37.87;101034.38;4431826;32;34983;-87
2021/10/28 11:27:53;;;;;;;9.95;6.57;;;;;;;18.49;31.64;100966.13;4416446;32;33382;-89
2021/10/28 12:14:13;;;;;;;7.05;5.32;;;;;;;18.76;31.43;100918.13;4435005;32;33247;-89
2021/10/28 12:22:46;;;;;;;5.05;4.65;;;;;;;19.36;32.08;100887.00;4430275;32;33027;-88
2021/10/28 12:48:00;;;;;;;5.30;4.70;;;;;;;18.96;30.90;100867.37;4441521;32;33990;-91
2021/10/28 13:06:45;;;;;;;4.25;3.90;;;;;;;20.77;26.58;100845.91;4432267;32;33365;-88
2021/10/28 13:50:47;;;;;;;14.98;4.65;;;;;;;22.00;24.95;100800.75;4446760;32;33781;-86
2021/10/28 14:20:49;;;;;;;9.50;5.12;;;;;;;21.18;26.64;100807.41;4430282;32;36019;-84
2021/10/28 14:31:27;;;;;;;;;;;;;;;21.69;26.07;100798.31;4433910;32;33772;-86
2021/10/28 14:39:28;;;;;;;7.18;5.10;;;;;;;22.48;25.57;100791.81;4440271;32;35593;-85
2021/10/28 15:29:29;;;;;;;16.20;9.10;;;;;;;18.64;34.35;100760.47;4413349;32;33164;-86
2021/10/28 15:32:24;;;;;;;7.15;4.90;;;;;;;18.60;34.41;100771.75;4400349;32;34168;-87
2021/10/28 15:37:44;;;;;;;8.63;7.53;;;;;;;18.07;34.87;100779.53;4412760;32;34132;-83
2021/10/28 15:43:22;;;;;;;6.05;5.55;;;;;;;17.60;36.17;100775.78;4401891;32;33933;-87
2021/10/28 15:54:37;;;;;;;6.07;5.43;;;;;;;16.84;37.11;100784.88;4404182;32;33953;-86
2021/10/28 16:00:12;;;;;;;7.30;6.60;;;;;;;16.34;37.63;100788.41;4450027;32;34285;-87
2021/10/28 16:21:55;;;;;;;7.25;5.80;;;;;;;14.92;40.85;100788.41;4433335;32;34331;-86
2021/10/28 16:24:25;;;;;;;12.37;6.63;;;;;;;14.79;41.15;100779.03;4434750;32;33824;-86
2021/10/28 16:26:54;;;;;;;5.32;4.90;;;;;;;14.67;41.12;100785.56;4421611;32;35674;-83
2021/10/28 16:29:23;;;;;;;5.93;5.32;;;;;;;14.58;41.25;100781.09;4432659;32;34935;-86
2021/10/28 16:31:51;;;;;;;6.45;5.43;;;;;;;14.44;41.61;100781.53;4434757;32;34112;-86
2021/10/28 16:34:25;;;;;;;9.43;5.00;;;;;;;14.29;41.86;100785.69;4432570;32;32977;-85
2021/10/28 16:36:53;;;;;;;7.82;7.00;;;;;;;14.16;42.25;100790.44;4435258;32;33454;-87
2021/10/28 16:39:21;;;;;;;8.65;7.85;;;;;;;14.05;42.32;100789.78;4432308;32;34786;-83
2021/10/28 16:41:51;;;;;;;;;;;;;;;14.02;42.50;100787.34;4435746;32;34158;-85
2021/10/28 16:44:19;;;;;;;6.50;5.70;;;;;;;13.82;42.77;100794.56;4422401;32;32443;-84
2021/10/28 16:46:47;;;;;;;9.57;5.90;;;;;;;13.60;43.24;100794.00;4436167;32;34816;-86
2021/10/28 16:49:15;;;;;;;6.05;5.45;;;;;;;13.45;43.58;100798.03;4428698;32;34858;-85
2021/10/28 16:51:44;;;;;;;4.28;3.97;;;;;;;13.26;43.85;100800.66;4437104;32;34093;-86
2021/10/28 16:54:16;;;;;;;10.85;6.50;;;;;;;13.10;44.17;100797.66;4440923;32;32239;-86
2021/10/28 16:56:47;;;;;;;15.15;7.80;;;;;;;13.11;44.37;100796.72;4436310;32;33945;-86
2021/10/28 16:59:15;;;;;;;14.40;7.15;;;;;;;12.94;44.70;100800.03;4436185;32;34794;-85
2021/10/28 17:01:43;;;;;;;6.57;5.93;;;;;;;12.93;44.70;100806.31;4430470;32;34571;-86
2021/10/28 17:04:11;;;;;;;8.40;7.68;;;;;;;12.69;45.33;100811.09;4423086;32;31483;-86
2021/10/28 17:06:39;;;;;;;6.20;5.50;;;;;;;12.61;45.56;100810.91;4427479;32;34815;-85
2021/10/28 17:09:07;;;;;;;8.68;7.80;;;;;;;12.48;45.68;100805.78;4435812;32;34354;-87
2021/10/28 17:11:36;;;;;;;7.28;6.57;;;;;;;12.33;46.00;100815.12;4435869;32;34170;-84
2021/10/28 17:14:05;;;;;;;8.80;7.87;;;;;;;12.18;46.50;100810.25;4427574;32;32819;-85
2021/10/28 17:16:34;;;;;;;6.78;6.25;;;;;;;12.32;46.34;100804.56;4434445;32;34059;-86
2021/10/28 17:19:03;;;;;;;10.73;9.82;;;;;;;12.02;47.06;100815.19;4427601;32;35642;-85
2021/10/28 17:21:31;;;;;;;23.87;11.15;;;;;;;11.85;47.42;100815.75;4418087;32;34187;-84
2021/10/28 17:24:03;;;;;;;15.55;9.15;;;;;;;11.81;47.50;100812.47;4445263;32;33839;-85
2021/10/28 17:26:32;;;;;;;12.95;10.85;;;;;;;11.73;47.71;100817.59;4431452;32;33810;-83
2021/10/28 17:29:02;;;;;;;10.85;9.82;;;;;;;11.85;47.37;100813.06;4421316;32;33165;-83
2021/10/28 17:31:35;;;;;;;13.13;9.55;;;;;;;11.62;47.67;100809.66;4428907;32;34377;-83
2021/10/28 17:34:04;;;;;;;10.68;9.57;;;;;;;11.43;47.87;100817.41;4428551;32;33073;-86
2021/10/28 17:36:32;;;;;;;10.15;8.10;;;;;;;11.57;47.75;100819.84;4433708;32;34401;-87
2021/10/28 17:39:06;;;;;;;9.82;8.23;;;;;;;11.47;47.93;100816.19;4436550;32;35359;-85
2021/10/28 17:41:34;;;;;;;10.27;9.18;;;;;;;11.30;48.34;100829.19;4421394;32;33438;-84
2021/10/28 17:44:04;;;;;;;19.90;9.13;;;;;;;11.23;48.82;100827.16;4435693;32;33120;-86
2021/10/28 17:46:32;;;;;;;8.80;7.82;;;;;;;11.30;48.47;100823.03;4425674;32;33178;-85
2021/10/28 17:49:00;;;;;;;12.98;11.23;;;;;;;11.19;48.76;100826.56;4435274;32;34603;-88
2021/10/28 17:51:28;;;;;;;8.65;7.78;;;;;;;11.11;48.68;100826.31;4437889;32;34828;-88
2021/10/28 17:53:55;;;;;;;13.02;11.60;;;;;;;11.08;48.92;100821.25;4435686;32;33772;-85
2021/10/28 17:56:23;;;;;;;;;;;;;;;11.08;49.03;100818.59;4436365;32;33200;-85
2021/10/28 17:58:51;;;;;;;10.52;7.03;;;;;;;10.95;49.30;100815.19;4436509;32;36194;-83
2021/10/28 18:01:20;;;;;;;8.15;7.40;;;;;;;10.72;49.65;100818.84;4434312;32;34917;-85
2021/10/28 18:03:49;;;;;;;11.10;9.95;;;;;;;10.79;49.49;100825.38;4437536;32;33262;-87
2021/10/28 18:06:16;;;;;;;9.18;7.30;;;;;;;10.75;49.45;100818.59;4435941;32;33914;-88
2021/10/28 18:08:44;;;;;;;14.13;8.15;;;;;;;10.58;49.80;100818.22;4437681;32;35473;-88
2021/10/28 18:11:12;;;;;;;16.08;6.80;;;;;;;10.64;49.85;100818.59;4436418;32;35013;-87
2021/10/28 18:13:39;;;;;;;9.80;8.90;;;;;;;10.57;50.03;100820.03;4434355;32;33669;-87
2021/10/28 18:16:07;;;;;;;10.80;7.97;;;;;;;10.50;50.05;100818.84;4436444;32;34188;-86
2021/10/28 18:18:37;;;;;;;12.52;8.77;;;;;;;10.37;50.28;100818.06;4443105;32;34468;-86
2021/10/28 18:21:05;;;;;;;7.53;6.78;;;;;;;10.36;50.30;100826.16;4438779;32;35926;-84
2021/10/28 18:23:33;;;;;;;;;;;;;;;10.43;50.07;100820.25;4438681;32;33721;-88
2021/10/28 18:26:01;;;;;;;6.28;5.78;;;;;;;10.37;50.37;100822.56;4435059;32;33728;-87
2021/10/28 18:28:28;;;;;;;12.60;8.23;;;;;;;10.43;50.19;100822.06;4417139;32;33239;-89
2021/10/28 18:30:56;;;;;;;12.07;7.70;;;;;;;10.27;50.77;100819.75;4444054;32;34110;-87
2021/10/28 18:33:25;;;;;;;10.68;8.68;;;;;;;10.20;51.07;100825.66;4435933;32;33165;-86
2021/10/28 18:35:53;;;;;;;16.55;7.97;;;;;;;9.95;51.66;100816.00;4433629;32;34600;-87
2021/10/28 18:38:21;;;;;;;13.65;8.55;;;;;;;9.91;51.50;100821.66;4440743;32;34661;-85
2021/10/28 18:40:54;;;;;;;13.57;8.07;;;;;;;9.88;51.63;100816.56;4436647;32;34048;-87
2021/10/28 18:43:22;;;;;;;9.70;8.38;;;;;;;9.93;51.50;100820.56;4434698;32;33080;-86
2021/10/28 18:45:49;;;;;;;8.05;7.15;;;;;;;9.86;51.64;100818.50;4435334;32;33906;-87
2021/10/28 18:48:19;;;;;;;14.55;8.52;;;;;;;9.87;51.44;100817.53;4438199;32;35442;-87
2021/10/28 18:50:46;;;;;;;14.30;10.48;;;;;;;9.67;51.57;100816.37;4428985;32;34585;-87
2021/10/28 18:53:14;;;;;;;16.98;8.68;;;;;;;9.73;51.86;100820.37;4438604;32;33671;-85
2021/10/28 18:55:43;;;;;;;9.80;8.88;;;;;;;9.68;52.26;100825.19;4435721;32;33518;-87
2021/10/28 18:58:11;;;;;;;14.07;10.43;;;;;;;9.50;52.80;100827.41;4445911;32;35558;-87
2021/10/28 19:00:40;;;;;;;12.23;8.30;;;;;;;9.52;52.32;100827.25;4440224;32;35240;-86
2021/10/28 19:03:08;;;;;;;10.10;9.10;;;;;;;9.48;52.42;100829.31;4434353;32;32994;-86
2021/10/28 19:05:39;;;;;;;12.45;7.47;;;;;;;9.44;52.43;100833.16;4437121;32;33348;-87
2021/10/28 19:08:07;;;;;;;;;;;;;;;9.40;52.45;100833.47;4424846;32;35762;-87
2021/10/28 19:10:34;;;;;;;11.85;8.55;;;;;;;9.46;52.36;100830.37;4436519;32;34117;-86
2021/10/28 19:13:02;;;;;;;9.20;8.27;;;;;;;9.34;52.46;100828.59;4437045;32;34286;-84
2021/10/28 19:15:30;;;;;;;;;;;;;;;9.27;52.60;100825.56;4435746;32;33211;-87
2021/10/28 19:17:57;;;;;;;9.68;8.10;;;;;;;9.31;52.38;100828.84;4439509;32;35130;-88
2021/10/28 19:20:26;;;;;;;9.25;7.97;;;;;;;9.23;52.37;100826.75;4420946;32;33473;-86
2021/10/28 19:22:54;;;;;;;10.27;9.27;;;;;;;9.16;52.45;100827.31;4432241;32;33242;-87
2021/10/28 19:25:22;;;;;;;;;;;;;;;9.09;52.61;100824.22;4430312;32;33537;-87
2021/10/28 19:27:53;;;;;;;9.05;8.20;;;;;;;9.13;52.76;100819.53;4436974;32;36463;-87
2021/10/28 19:30:32;;;;;;;14.77;7.45;;;;;;;9.13;52.64;100824.84;4439507;32;34984;-84
2021/10/28 19:33:06;;;;;;;14.60;9.90;;;;;;;8.95;53.11;100829.69;4436044;32;33319;-85
2021/10/28 19:35:36;;;;;;;9.43;8.20;;;;;;;8.95;53.08;100832.34;4433585;32;33990;-86
2021/10/28 19:38:16;;;;;;;12.85;9.68;;;;;;;8.87;53.15;100832.03;4421629;32;33841;-84
2021/10/28 19:41:10;;;;;;;15.32;11.70;;;;;;;8.96;53.37;100830.50;4432866;32;34107;-87
2021/10/28 19:46:28;;;;;;;10.55;9.65;;;;;;;8.85;53.95;100831.28;4436441;32;33535;-85
2021/10/28 19:48:56;;;;;;;12.50;8.68;;;;;;;8.86;53.54;100829.47;4444680;32;34413;-87
2021/10/28 19:51:24;;;;;;;15.63;10.75;;;;;;;8.69;53.86;100833.31;4436821;32;34537;-87
2021/10/28 19:53:52;;;;;;;;;;;;;;;8.66;53.87;100827.37;4438182;32;33851;-87
2021/10/28 19:56:20;;;;;;;;;;;;;;;8.68;53.63;100826.31;4436883;32;34082;-87
2021/10/28 19:58:53;;;;;;;9.60;8.00;;;;;;;8.60;53.83;100828.66;4436004;32;35921;-84
2021/10/28 20:04:14;;;;;;;13.90;9.90;;;;;;;8.52;54.12;100824.84;4444894;32;33600;-87
2021/10/28 20:20:33;;;;;;;11.85;10.27;;;;;;;8.30;54.88;100832.56;4430162;32;34834;-88
2021/10/28 20:23:00;;;;;;;12.98;10.55;;;;;;;8.31;54.89;100830.78;4440787;32;34756;-85
2021/10/28 20:25:29;;;;;;;15.50;12.57;;;;;;;8.20;55.30;100828.84;4431244;32;32982;-85
2021/10/28 20:28:04;;;;;;;11.55;10.35;;;;;;;8.03;55.88;100825.62;4436751;32;33644;-86
2021/10/28 20:30:40;;;;;;;14.35;8.65;;;;;;;8.09;55.83;100819.94;4417724;32;34904;-85
2021/10/28 20:33:09;;;;;;;10.48;9.57;;;;;;;8.04;55.68;100816.72;4420385;32;32352;-86
2021/10/28 20:38:21;;;;;;;14.10;10.60;;;;;;;8.04;55.56;100827.31;4436694;32;34054;-87